Time;durP1;ratioP1;P1;durP2;ratioP2;P2;SDS_P1;SDS_P2;PMS_P1;PMS_P2;Temp;Humidity;BMP_temperature;BMP_pressure;BME280_temperature;BME280_humidity;BME280_pressure;Samples;Min_cycle;Max_cycle;Signal;HPM_P1;HPM_P2
2022/06/06 00:02:27;;;;;;;12.00;9.10;;;16.10;99.90;;;;;;5038620;28;20048;-79
2022/06/06 00:04:53;;;;;;;12.82;9.43;;;16.10;99.90;;;;;;5033435;28;20037;-79
2022/06/06 00:07:19;;;;;;;14.00;9.70;;;16.10;99.90;;;;;;5030849;28;20058;-79
2022/06/06 00:09:45;;;;;;;14.15;9.98;;;16.00;99.90;;;;;;5040321;28;20073;-79
2022/06/06 00:12:11;;;;;;;13.40;9.70;;;16.10;99.90;;;;;;5050143;28;20164;-79
2022/06/06 00:14:37;;;;;;;13.38;9.75;;;16.00;99.90;;;;;;5039405;28;20075;-79
2022/06/06 00:17:03;;;;;;;14.57;9.95;;;16.10;99.90;;;;;;5032767;28;20180;-79
2022/06/06 00:19:29;;;;;;;14.63;10.00;;;16.10;99.90;;;;;;5037302;28;20156;-79
2022/06/06 00:21:55;;;;;;;14.40;11.00;;;16.00;99.90;;;;;;5039342;28;20175;-79
2022/06/06 00:24:21;;;;;;;14.13;10.88;;;16.00;99.90;;;;;;5038938;28;20048;-79
2022/06/06 00:26:46;;;;;;;15.27;11.25;;;16.00;99.90;;;;;;5034085;28;20057;-79
2022/06/06 00:29:20;;;;;;;14.77;10.70;;;16.00;99.90;;;;;;5039846;28;20036;-79
2022/06/06 00:34:49;;;;;;;14.00;9.88;;;15.90;99.90;;;;;;5041896;28;20139;-79
2022/06/06 00:37:18;;;;;;;10.85;8.13;;;16.00;99.90;;;;;;5033161;28;20045;-79
2022/06/06 00:39:45;;;;;;;11.98;8.60;;;15.90;99.90;;;;;;5041059;28;20056;-79
2022/06/06 00:42:22;;;;;;;10.38;8.07;;;15.90;99.90;;;;;;5037299;28;20057;-79
2022/06/06 00:45:10;;;;;;;11.75;8.32;;;15.90;99.90;;;;;;5040619;28;20053;-79
2022/06/06 00:47:39;;;;;;;11.25;8.10;;;15.80;99.90;;;;;;5030318;28;23286;-79
2022/06/06 00:50:12;;;;;;;11.35;9.18;;;15.80;99.90;;;;;;5040802;28;20037;-79
2022/06/06 00:52:40;;;;;;;10.73;8.93;;;15.80;99.90;;;;;;5041550;28;20048;-79
2022/06/06 00:55:11;;;;;;;9.68;7.72;;;15.80;99.90;;;;;;5040647;28;20057;-79
2022/06/06 00:57:45;;;;;;;9.93;7.65;;;15.80;99.90;;;;;;5032560;28;20041;-79
2022/06/06 01:00:15;;;;;;;11.33;8.27;;;15.70;99.90;;;;;;5041183;28;20049;-79
2022/06/06 01:02:45;;;;;;;10.32;7.40;;;15.70;99.90;;;;;;5037397;28;20104;-79
2022/06/06 01:05:11;;;;;;;12.48;8.15;;;15.70;99.90;;;;;;5039427;28;20053;-76
2022/06/06 01:07:37;;;;;;;10.27;7.32;;;15.70;99.90;;;;;;5033767;28;20174;-77
2022/06/06 01:10:04;;;;;;;10.63;7.88;;;15.70;99.90;;;;;;5040815;28;20088;-76
2022/06/06 01:12:32;;;;;;;10.65;8.27;;;15.70;99.90;;;;;;5040037;28;20052;-76
2022/06/06 01:15:07;;;;;;;10.98;8.20;;;15.60;99.90;;;;;;5038520;28;20057;-76
2022/06/06 01:17:58;;;;;;;10.70;8.90;;;15.60;99.90;;;;;;5036394;28;20098;-79
2022/06/06 01:20:53;;;;;;;11.43;8.18;;;15.70;99.90;;;;;;5040297;28;20590;-79
2022/06/06 01:23:24;;;;;;;12.98;8.75;;;15.60;99.90;;;;;;5038984;28;20060;-79
2022/06/06 01:25:57;;;;;;;11.13;8.02;;;15.60;99.90;;;;;;5032044;28;20076;-79
2022/06/06 01:28:30;;;;;;;11.07;8.13;;;15.60;99.90;;;;;;5036044;28;20053;-79
2022/06/06 01:31:00;;;;;;;13.63;8.00;;;15.60;99.90;;;;;;5041236;28;20768;-79
2022/06/06 01:33:26;;;;;;;9.75;7.25;;;15.60;99.90;;;;;;5040518;28;20045;-78
2022/06/06 01:35:52;;;;;;;13.68;7.65;;;15.50;99.90;;;;;;5030533;28;20056;-79
2022/06/06 01:38:21;;;;;;;11.40;6.60;;;15.50;99.90;;;;;;5038785;28;20044;-79
2022/06/06 01:41:00;;;;;;;11.07;7.03;;;15.50;99.90;;;;;;5038783;28;20498;-78
2022/06/06 01:43:34;;;;;;;9.90;6.40;;;15.50;99.90;;;;;;5040727;28;20139;-78
2022/06/06 01:46:14;;;;;;;8.43;6.43;;;15.40;99.90;;;;;;5031043;28;20067;-78
2022/06/06 01:48:42;;;;;;;11.52;6.47;;;15.50;99.90;;;;;;5038919;28;20163;-78
2022/06/06 01:51:14;;;;;;;8.95;6.07;;;15.40;99.90;;;;;;5038000;28;20041;-79
2022/06/06 01:53:41;;;;;;;8.82;5.82;;;15.40;99.90;;;;;;5029654;28;20053;-78
2022/06/06 01:56:09;;;;;;;8.68;5.70;;;15.40;99.90;;;;;;5033650;28;20063;-78
2022/06/06 01:58:35;;;;;;;7.93;5.28;;;15.80;99.90;;;;;;5035449;28;20041;-78
2022/06/06 02:01:02;;;;;;;8.23;5.03;;;15.40;99.90;;;;;;5029947;28;20053;-78
2022/06/06 02:03:30;;;;;;;8.60;5.05;;;15.40;99.90;;;;;;5040756;28;20053;-78
2022/06/06 02:05:56;;;;;;;7.47;4.85;;;15.40;99.90;;;;;;5038063;28;20178;-78
2022/06/06 02:08:22;;;;;;;7.47;4.60;;;15.30;99.90;;;;;;5038406;28;20083;-78
2022/06/06 02:10:48;;;;;;;6.75;4.72;;;15.30;99.90;;;;;;5034482;28;20055;-78
2022/06/06 02:13:14;;;;;;;6.78;3.95;;;15.30;99.90;;;;;;5037802;28;20065;-78
2022/06/06 02:15:40;;;;;;;7.13;4.28;;;15.30;99.90;;;;;;5034415;28;20049;-78
2022/06/06 02:18:06;;;;;;;5.32;3.53;;;15.20;99.90;;;;;;5039224;28;20060;-78
2022/06/06 02:20:32;;;;;;;6.30;3.90;;;15.20;99.90;;;;;;5031744;28;20056;-78
2022/06/06 02:22:59;;;;;;;7.72;4.63;;;15.20;99.90;;;;;;5037210;28;20056;-78
2022/06/06 02:25:26;;;;;;;6.47;4.22;;;15.30;99.90;;;;;;5039399;28;20040;-78
2022/06/06 02:27:52;;;;;;;6.72;4.35;;;15.40;99.90;;;;;;5036270;28;20053;-76
2022/06/06 02:30:20;;;;;;;5.78;4.03;;;15.10;99.90;;;;;;5031279;28;20441;-76
2022/06/06 02:32:47;;;;;;;6.60;3.88;;;15.10;99.90;;;;;;5039262;28;20085;-77
2022/06/06 02:35:17;;;;;;;7.53;4.32;;;15.10;99.90;;;;;;5036394;28;20049;-76
2022/06/06 02:37:44;;;;;;;6.75;4.50;;;15.10;99.90;;;;;;5037118;28;20057;-76
2022/06/06 02:40:11;;;;;;;6.63;3.90;;;15.00;99.90;;;;;;5032771;28;20045;-76
2022/06/06 02:42:38;;;;;;;6.88;4.13;;;15.00;99.90;;;;;;5035730;28;20052;-77
2022/06/06 02:45:05;;;;;;;7.47;3.90;;;15.00;99.90;;;;;;5039198;28;20099;-76
2022/06/06 02:47:31;;;;;;;7.55;4.22;;;14.90;99.90;;;;;;5036201;28;20033;-77
2022/06/06 02:49:57;;;;;;;7.82;4.53;;;14.90;99.90;;;;;;5033457;28;20127;-77
2022/06/06 02:52:23;;;;;;;6.50;4.47;;;14.90;99.90;;;;;;5041102;28;20040;-76
2022/06/06 02:54:49;;;;;;;6.93;4.20;;;14.90;99.90;;;;;;5035655;28;20509;-77
2022/06/06 02:57:14;;;;;;;7.82;4.40;;;14.90;99.90;;;;;;5036443;28;20047;-76
2022/06/06 02:59:43;;;;;;;6.22;4.60;;;14.80;99.90;;;;;;5034234;28;20051;-76
2022/06/06 03:02:09;;;;;;;7.75;4.20;;;14.80;99.90;;;;;;5035373;28;20651;-76
2022/06/06 03:04:38;;;;;;;9.00;4.82;;;14.80;99.90;;;;;;5037626;28;20399;-77
2022/06/06 03:07:34;;;;;;;8.10;5.03;;;14.80;99.90;;;;;;5039212;28;20060;-76
2022/06/06 03:10:06;;;;;;;8.70;5.50;;;14.70;99.90;;;;;;5033246;28;20563;-76
2022/06/06 03:13:22;;;;;;;7.57;5.53;;;14.70;99.90;;;;;;5043383;28;20040;-76
2022/06/06 03:22:33;;;;;;;8.80;4.72;;;14.70;99.90;;;;;;5038684;28;20049;-77
2022/06/06 03:25:30;;;;;;;7.97;4.93;;;14.70;99.90;;;;;;5040401;28;20052;-77
2022/06/06 03:28:17;;;;;;;7.65;4.82;;;14.70;99.90;;;;;;5039881;28;20790;-76
2022/06/06 03:31:14;;;;;;;7.93;4.80;;;14.70;99.90;;;;;;5035745;28;20518;-77
2022/06/06 03:33:59;;;;;;;7.45;4.70;;;14.70;99.90;;;;;;5041046;28;20041;-77
2022/06/06 03:36:54;;;;;;;9.18;4.95;;;14.60;99.90;;;;;;5041282;28;20052;-77
2022/06/06 03:39:25;;;;;;;7.88;5.15;;;14.60;99.90;;;;;;5036530;28;20045;-77
2022/06/06 03:42:11;;;;;;;8.75;4.68;;;14.60;99.90;;;;;;5041158;28;20056;-77
2022/06/06 03:44:54;;;;;;;8.45;4.30;;;14.70;99.90;;;;;;5009165;28;20122;-77
2022/06/06 03:47:49;;;;;;;6.78;4.40;;;14.70;99.90;;;;;;5039632;28;20141;-77
2022/06/06 03:50:58;;;;;;;6.85;4.22;;;14.70;99.90;;;;;;5036200;28;20041;-77
2022/06/06 03:53:43;;;;;;;7.40;4.57;;;14.70;99.90;;;;;;5042360;28;20072;-77
2022/06/06 03:56:32;;;;;;;4.78;3.17;;;14.70;99.90;;;;;;5043046;28;20399;-77
2022/06/06 03:58:59;;;;;;;6.93;3.60;;;14.70;99.90;;;;;;5036961;28;20057;-77
2022/06/06 04:01:26;;;;;;;5.82;3.70;;;14.70;99.90;;;;;;5041241;28;20914;-77
2022/06/06 04:03:53;;;;;;;5.63;3.90;;;14.80;99.90;;;;;;5039653;28;20053;-77
2022/06/06 04:06:20;;;;;;;5.45;3.50;;;14.70;99.90;;;;;;5040098;28;20503;-77
2022/06/06 04:08:46;;;;;;;5.93;3.50;;;14.70;99.90;;;;;;5040470;28;20041;-77
2022/06/06 04:11:29;;;;;;;5.75;3.83;;;14.60;99.90;;;;;;5044713;28;20041;-77
2022/06/06 04:14:07;;;;;;;5.47;3.47;;;14.70;99.90;;;;;;5038653;28;20902;-77
2022/06/06 04:16:43;;;;;;;5.68;3.78;;;14.70;99.90;;;;;;5038473;28;20292;-77
2022/06/06 04:19:27;;;;;;;6.93;3.97;;;14.70;99.90;;;;;;5033686;28;20067;-77
2022/06/06 04:22:04;;;;;;;7.05;4.60;;;14.60;99.90;;;;;;5040703;28;20057;-77
2022/06/06 04:24:58;;;;;;;8.98;5.15;;;14.60;99.90;;;;;;5040723;28;20045;-77
2022/06/06 04:27:45;;;;;;;8.20;5.22;;;14.70;99.90;;;;;;5039386;28;20045;-76
2022/06/06 04:30:26;;;;;;;9.88;5.57;;;14.70;99.90;;;;;;5034872;28;20099;-77
2022/06/06 04:33:15;;;;;;;9.48;5.60;;;14.60;99.90;;;;;;5039040;28;20481;-77
2022/06/06 04:36:12;;;;;;;7.70;5.07;;;14.60;99.90;;;;;;5039827;28;20048;-78
2022/06/06 04:39:04;;;;;;;9.38;5.32;;;14.60;99.90;;;;;;5038120;28;20051;-77
2022/06/06 04:41:44;;;;;;;8.85;5.10;;;14.60;99.90;;;;;;5038294;28;20060;-77
2022/06/06 04:44:28;;;;;;;8.73;3.90;;;14.50;99.90;;;;;;5037116;28;20458;-77
2022/06/06 04:47:03;;;;;;;6.93;4.00;;;14.50;99.90;;;;;;5041514;28;20061;-78
2022/06/06 04:49:31;;;;;;;8.65;4.63;;;14.50;99.90;;;;;;5035387;28;20045;-77
2022/06/06 04:51:59;;;;;;;9.45;4.53;;;14.60;99.90;;;;;;5040322;28;20195;-77
2022/06/06 04:54:27;;;;;;;8.30;4.57;;;14.50;99.90;;;;;;5039360;28;20053;-77
2022/06/06 04:56:55;;;;;;;9.23;4.65;;;14.50;99.90;;;;;;5041354;28;20398;-77
2022/06/06 04:59:23;;;;;;;7.85;5.15;;;14.60;99.90;;;;;;5032426;28;20049;-76
2022/06/06 05:01:52;;;;;;;10.25;4.88;;;14.40;99.90;;;;;;5038194;28;20064;-77
2022/06/06 05:04:18;;;;;;;8.05;4.43;;;14.60;99.90;;;;;;5038744;28;20056;-77
2022/06/06 05:07:04;;;;;;;11.02;6.22;;;14.40;99.90;;;;;;5041515;28;20863;-77
2022/06/06 05:09:42;;;;;;;9.02;5.70;;;14.40;99.90;;;;;;5035374;28;20411;-77
2022/06/06 05:12:44;;;;;;;10.50;5.75;;;14.40;99.90;;;;;;5040955;28;20099;-77
2022/06/06 05:15:33;;;;;;;14.25;7.25;;;14.40;99.90;;;;;;5039338;28;20048;-77
2022/06/06 05:18:22;;;;;;;14.32;7.65;;;14.40;99.90;;;;;;5054921;28;20067;-77
2022/06/06 05:21:08;;;;;;;13.43;6.95;;;14.40;99.90;;;;;;5028798;28;20048;-76
2022/06/06 05:24:09;;;;;;;12.48;6.97;;;14.30;99.90;;;;;;5054973;28;20044;-77
2022/06/06 05:26:55;;;;;;;12.85;8.00;;;14.30;99.90;;;;;;5040919;28;20115;-77
2022/06/06 05:29:42;;;;;;;12.45;7.72;;;14.30;99.90;;;;;;5035918;28;20140;-77
2022/06/06 05:32:36;;;;;;;19.55;9.00;;;14.30;99.90;;;;;;5036893;28;20041;-77
2022/06/06 05:35:20;;;;;;;15.07;9.07;;;14.30;99.90;;;;;;5035840;28;20064;-77
2022/06/06 05:38:00;;;;;;;15.15;9.68;;;14.30;99.90;;;;;;5036713;28;20045;-78
2022/06/06 05:40:37;;;;;;;15.10;10.02;;;14.30;99.90;;;;;;5048481;28;20044;-77
2022/06/06 05:43:10;;;;;;;15.65;10.27;;;14.30;99.90;;;;;;5038370;28;20053;-78
2022/06/06 05:45:53;;;;;;;17.40;9.93;;;14.30;99.90;;;;;;5036633;28;20052;-77
2022/06/06 05:48:53;;;;;;;16.10;10.07;;;14.30;99.90;;;;;;5038394;28;20143;-78
2022/06/06 05:51:29;;;;;;;20.30;11.27;;;14.20;99.90;;;;;;5038591;28;20041;-78
2022/06/06 05:54:14;;;;;;;15.95;10.82;;;14.20;99.90;;;;;;5042212;28;20180;-78
2022/06/06 05:57:01;;;;;;;17.17;10.75;;;14.50;99.90;;;;;;5038877;28;20514;-78
2022/06/06 05:59:42;;;;;;;20.00;12.05;;;14.30;99.90;;;;;;5040331;28;20049;-77
2022/06/06 06:02:13;;;;;;;20.08;11.90;;;14.30;99.90;;;;;;5054416;28;20467;-77
2022/06/06 06:05:13;;;;;;;18.38;12.73;;;14.20;99.90;;;;;;5047742;28;20373;-77
2022/06/06 06:07:43;;;;;;;18.42;12.77;;;14.20;99.90;;;;;;5043167;28;20468;-77
2022/06/06 06:10:17;;;;;;;19.77;13.27;;;14.20;99.90;;;;;;5048142;28;20458;-77
2022/06/06 06:13:19;;;;;;;21.42;12.80;;;14.20;99.90;;;;;;5058743;28;20071;-77
2022/06/06 06:15:45;;;;;;;18.77;12.77;;;14.20;99.90;;;;;;5059542;28;20056;-77
2022/06/06 06:18:19;;;;;;;23.25;14.93;;;14.20;99.90;;;;;;5049374;28;20048;-77
2022/06/06 06:20:54;;;;;;;24.33;14.55;;;14.20;99.90;;;;;;5046929;28;20132;-77
2022/06/06 06:23:25;;;;;;;21.52;14.95;;;14.40;99.90;;;;;;5048148;28;20044;-77
2022/06/06 06:25:53;;;;;;;27.45;15.40;;;14.20;99.90;;;;;;5046598;28;20053;-77
2022/06/06 06:28:18;;;;;;;25.10;15.45;;;14.20;99.90;;;;;;5041554;28;20151;-78
2022/06/06 06:31:12;;;;;;;18.92;13.05;;;14.20;99.90;;;;;;5052999;28;20124;-77
2022/06/06 06:34:09;;;;;;;20.42;13.05;;;14.20;99.90;;;;;;5030294;28;20084;-78
2022/06/06 06:36:41;;;;;;;21.15;14.20;;;14.20;99.90;;;;;;5058750;28;20045;-78
2022/06/06 06:39:32;;;;;;;19.60;12.77;;;14.20;99.90;;;;;;5045401;28;20131;-78
2022/06/06 06:42:16;;;;;;;23.83;12.40;;;14.20;99.90;;;;;;5054357;28;20054;-78
2022/06/06 06:44:53;;;;;;;19.25;11.60;;;14.20;99.90;;;;;;5051859;28;20068;-78
2022/06/06 06:47:31;;;;;;;17.10;10.60;;;14.30;99.90;;;;;;5050215;28;20037;-79
2022/06/06 06:50:16;;;;;;;18.13;9.80;;;14.30;99.90;;;;;;5048466;28;20487;-79
2022/06/06 06:53:03;;;;;;;15.75;10.27;;;14.30;99.90;;;;;;5046500;28;20052;-79
2022/06/06 06:55:56;;;;;;;16.33;9.85;;;14.30;99.90;;;;;;5046906;28;20072;-78
2022/06/06 06:58:58;;;;;;;13.77;9.93;;;14.30;99.90;;;;;;5050158;28;20040;-78
2022/06/06 07:11:04;;;;;;;16.52;8.57;;;14.50;99.90;;;;;;5045900;28;20299;-77
2022/06/06 07:13:38;;;;;;;13.23;8.07;;;14.60;99.90;;;;;;5043920;28;20124;-79
2022/06/06 07:16:34;;;;;;;13.45;7.28;;;14.60;99.90;;;;;;5049417;28;20048;-79
2022/06/06 07:19:09;;;;;;;14.48;7.72;;;14.80;99.90;;;;;;5024200;28;20073;-77
2022/06/06 07:21:37;;;;;;;12.88;7.72;;;14.90;99.90;;;;;;5038323;28;20056;-77
2022/06/06 07:24:07;;;;;;;12.48;7.30;;;15.00;99.90;;;;;;5035951;28;20057;-77
2022/06/06 07:26:41;;;;;;;10.25;6.70;;;15.20;99.90;;;;;;5035216;28;20057;-79
2022/06/06 07:29:10;;;;;;;13.13;6.88;;;15.40;99.90;;;;;;5032747;28;20076;-79
2022/06/06 07:31:55;;;;;;;9.75;5.57;;;15.50;99.90;;;;;;5036736;28;20491;-80
2022/06/06 07:35:08;;;;;;;12.70;6.80;;;15.70;99.90;;;;;;5039354;28;20052;-79
2022/06/06 07:38:04;;;;;;;9.85;5.13;;;15.60;99.90;;;;;;5025458;28;20075;-80
2022/06/06 07:40:42;;;;;;;10.38;4.00;;;15.50;99.90;;;;;;5037513;28;20144;-81
2022/06/06 07:43:36;;;;;;;6.70;3.85;;;15.60;99.90;;;;;;5037661;28;20475;-80
2022/06/06 07:46:24;;;;;;;8.38;4.40;;;15.90;99.90;;;;;;5037272;28;20045;-80
2022/06/06 07:48:51;;;;;;;6.50;3.25;;;16.10;99.90;;;;;;5027681;28;20092;-81
2022/06/06 07:51:43;;;;;;;7.47;3.80;;;16.30;99.90;;;;;;5019781;28;20039;-80
2022/06/06 07:54:38;;;;;;;8.88;4.40;;;16.40;99.90;;;;;;5035789;28;20045;-79
2022/06/06 07:57:26;;;;;;;10.05;3.75;;;16.40;99.90;;;;;;5037469;28;20056;-81
2022/06/06 08:00:01;;;;;;;7.75;3.67;;;16.40;99.90;;;;;;5040307;28;20057;-80
2022/06/06 08:02:57;;;;;;;7.90;3.40;;;16.50;99.90;;;;;;5037946;28;20084;-79
2022/06/06 08:06:01;;;;;;;6.03;3.30;;;16.50;99.90;;;;;;5040604;28;20049;-80
2022/06/06 08:09:17;;;;;;;8.88;3.33;;;16.50;99.90;;;;;;5032987;28;20083;-79
2022/06/06 08:12:05;;;;;;;6.60;3.28;;;16.60;99.90;;;;;;5038715;28;20068;-79
2022/06/06 08:14:34;;;;;;;8.77;3.20;;;16.80;99.90;;;;;;5038145;28;20055;-79
2022/06/06 08:17:16;;;;;;;7.07;3.35;;;16.90;99.90;;;;;;5035262;28;20329;-80
2022/06/06 08:20:04;;;;;;;8.68;3.45;;;16.90;99.90;;;;;;5038548;28;20060;-80
2022/06/06 08:22:32;;;;;;;5.70;3.10;;;16.80;99.90;;;;;;5039808;28;20450;-77
2022/06/06 08:25:02;;;;;;;6.07;3.17;;;16.80;99.90;;;;;;5039534;28;20049;-77
2022/06/06 08:27:28;;;;;;;7.07;4.05;;;16.80;99.90;;;;;;5031016;28;20052;-77
2022/06/06 08:29:55;;;;;;;6.57;3.47;;;16.70;99.90;;;;;;5038939;28;20045;-79
2022/06/06 08:32:21;;;;;;;6.60;3.72;;;16.80;99.90;;;;;;5038380;28;20124;-79
2022/06/06 08:34:48;;;;;;;9.85;4.35;;;16.90;99.90;;;;;;5035227;28;20049;-78
2022/06/06 08:37:59;;;;;;;11.77;4.88;;;17.10;99.90;;;;;;5033368;28;20061;-79
2022/06/06 08:40:52;;;;;;;8.68;4.03;;;17.10;99.90;;;;;;5041401;28;20049;-78
2022/06/06 08:43:48;;;;;;;7.32;3.75;;;17.20;99.90;;;;;;5037332;28;20056;-78
2022/06/06 08:46:22;;;;;;;9.63;3.95;;;17.20;99.90;;;;;;5038641;28;20419;-76
2022/06/06 08:52:28;;;;;;;10.48;3.63;;;17.30;99.90;;;;;;5017968;28;20057;-77
2022/06/06 08:55:44;;;;;;;6.72;3.08;;;17.60;99.90;;;;;;5036360;28;20037;-78
2022/06/06 08:58:34;;;;;;;6.93;2.95;;;17.90;99.90;;;;;;5037624;28;20140;-78
2022/06/06 09:01:18;;;;;;;8.02;2.50;;;17.90;99.90;;;;;;5040524;28;20498;-77
2022/06/06 09:04:21;;;;;;;7.60;2.75;;;18.00;99.90;;;;;;5040893;28;20856;-77
2022/06/06 09:07:22;;;;;;;5.53;2.60;;;18.10;99.90;;;;;;5034121;28;20491;-80
2022/06/06 09:10:13;;;;;;;7.07;2.78;;;18.20;99.90;;;;;;5037501;28;20045;-80
2022/06/06 09:13:07;;;;;;;8.07;2.67;;;18.40;99.90;;;;;;5040376;28;20076;-80
2022/06/06 09:16:07;;;;;;;4.15;2.08;;;18.50;99.90;;;;;;5040090;28;20198;-80
2022/06/06 09:18:48;;;;;;;7.03;2.30;;;18.50;99.90;;;;;;5030468;28;20053;-79
2022/06/06 09:21:41;;;;;;;8.80;2.30;;;18.70;99.90;;;;;;5039371;28;20131;-81
2022/06/06 09:24:45;;;;;;;5.03;1.58;;;18.80;99.90;;;;;;5037598;28;20559;-79
2022/06/06 09:27:47;;;;;;;4.03;1.35;;;19.00;99.90;;;;;;5032692;28;20124;-79
2022/06/06 09:30:31;;;;;;;4.55;1.20;;;19.10;99.90;;;;;;5044089;28;20053;-79
2022/06/06 09:33:34;;;;;;;6.13;1.37;;;19.10;99.90;;;;;;5038240;28;20053;-78
2022/06/06 09:36:13;;;;;;;8.02;1.20;;;19.20;99.90;;;;;;5038319;28;20167;-78
2022/06/06 09:38:54;;;;;;;4.68;1.65;;;19.20;99.90;;;;;;5030636;28;20049;-79
2022/06/06 09:42:00;;;;;;;7.00;1.60;;;19.20;99.90;;;;;;5037821;28;20253;-79
2022/06/06 09:44:54;;;;;;;6.85;1.73;;;19.20;99.90;;;;;;5039605;28;20048;-79
2022/06/06 09:47:38;;;;;;;8.02;1.80;;;19.10;99.90;;;;;;5031046;28;20044;-80
2022/06/06 09:50:23;;;;;;;5.05;1.52;;;18.90;99.90;;;;;;5037614;28;20041;-81
2022/06/06 09:52:58;;;;;;;5.10;1.70;;;18.70;99.90;;;;;;5038116;28;20040;-80
2022/06/06 09:59:04;;;;;;;5.03;1.65;;;18.40;99.90;;;;;;5040855;28;20392;-80
2022/06/06 10:01:51;;;;;;;4.65;1.55;;;18.10;99.90;;;;;;5038975;28;20126;-79
2022/06/06 10:04:50;;;;;;;4.07;1.30;;;17.80;99.90;;;;;;5018275;28;20045;-80
2022/06/06 10:07:16;;;;;;;7.68;1.40;;;17.60;99.90;;;;;;5031224;28;20106;-81
2022/06/06 10:10:19;;;;;;;7.55;1.77;;;17.60;99.90;;;;;;5041947;28;20040;-80
2022/06/06 10:13:05;;;;;;;5.72;1.80;;;17.60;99.90;;;;;;5037190;28;20112;-80
2022/06/06 10:15:41;;;;;;;4.13;1.50;;;17.70;99.90;;;;;;5037751;28;20087;-79
2022/06/06 10:18:25;;;;;;;5.13;1.73;;;17.70;99.90;;;;;;5029894;28;20049;-79
2022/06/06 10:21:03;;;;;;;11.63;2.22;;;17.70;99.90;;;;;;5036547;28;20053;-80
2022/06/06 10:23:37;;;;;;;7.03;1.80;;;17.70;99.90;;;;;;5057501;28;20068;-79
2022/06/06 10:26:18;;;;;;;;;;;17.70;99.90;;;;;;5040193;28;20052;-79
2022/06/06 10:28:54;;;;;;;6.80;1.20;;;17.70;99.90;;;;;;5039388;28;19921;-79
2022/06/06 10:31:47;;;;;;;4.85;1.23;;;17.80;99.90;;;;;;5038001;28;20738;-80
2022/06/06 10:34:22;;;;;;;4.05;1.38;;;17.90;99.90;;;;;;5027444;28;20823;-81
2022/06/06 10:37:15;;;;;;;3.22;1.20;;;18.00;99.90;;;;;;5045457;28;20131;-78
2022/06/06 10:40:20;;;;;;;4.38;1.90;;;17.80;99.90;;;;;;5034429;28;20056;-77
2022/06/06 10:43:03;;;;;;;5.25;1.35;;;17.60;99.90;;;;;;5051075;28;20076;-77
2022/06/06 10:45:42;;;;;;;4.55;1.15;;;17.40;99.90;;;;;;5062602;28;20041;-78
2022/06/06 10:48:17;;;;;;;2.70;1.10;;;17.20;99.90;;;;;;5052635;28;20106;-79
2022/06/06 10:51:42;;;;;;;5.53;1.00;;;17.00;99.90;;;;;;5053325;28;20087;-79
2022/06/06 10:54:45;;;;;;;4.90;1.38;;;16.80;99.90;;;;;;5048094;28;20094;-79
2022/06/06 10:57:36;;;;;;;3.30;1.40;;;16.70;99.90;;;;;;5043340;28;20091;-79
2022/06/06 11:00:29;;;;;;;5.60;1.90;;;16.60;99.90;;;;;;5061800;28;20175;-77
2022/06/06 11:03:29;;;;;;;4.72;1.50;;;16.70;99.90;;;;;;5047959;28;20037;-79
2022/06/06 11:06:19;;;;;;;3.85;1.35;;;17.00;99.90;;;;;;5039215;28;20041;-78
2022/06/06 11:08:54;;;;;;;3.85;1.50;;;17.30;99.90;;;;;;5046626;28;20090;-78
2022/06/06 11:11:35;;;;;;;5.82;1.67;;;17.60;99.90;;;;;;5047428;28;20037;-78
2022/06/06 11:14:07;;;;;;;4.88;1.52;;;18.00;99.90;;;;;;5049896;28;20606;-76
2022/06/06 11:16:45;;;;;;;4.80;1.42;;;18.30;99.90;;;;;;5051907;28;20037;-82
2022/06/06 11:19:38;;;;;;;4.47;1.50;;;18.50;99.90;;;;;;5048545;28;20133;-76
2022/06/06 11:22:43;;;;;;;4.30;1.20;;;18.60;99.90;;;;;;5062576;28;20057;-79
2022/06/06 11:25:20;;;;;;;3.83;0.93;;;18.80;99.90;;;;;;5051784;28;20045;-79
2022/06/06 11:28:24;;;;;;;4.20;1.10;;;18.90;99.90;;;;;;5052460;28;20046;-79
2022/06/06 11:31:02;;;;;;;8.60;1.20;;;19.00;99.90;;;;;;5038211;28;20064;-79
2022/06/06 11:33:28;;;;;;;9.13;1.30;;;19.10;99.90;;;;;;5053040;28;20040;-77
2022/06/06 11:35:59;;;;;;;5.13;1.30;;;19.00;99.90;;;;;;5064755;28;20072;-79
2022/06/06 11:38:55;;;;;;;4.75;1.40;;;19.00;99.90;;;;;;5054479;28;20037;-79
2022/06/06 11:41:52;;;;;;;8.43;1.70;;;18.90;99.90;;;;;;5052419;28;20193;-79
2022/06/06 11:44:58;;;;;;;6.97;1.45;;;18.90;99.90;;;;;;5053074;28;20447;-78
2022/06/06 11:48:08;;;;;;;3.03;1.60;;;18.70;99.90;;;;;;5055670;28;20102;-77
2022/06/06 11:51:04;;;;;;;7.95;1.40;;;18.50;99.90;;;;;;5054840;28;20156;-78
2022/06/06 11:53:45;;;;;;;3.83;1.00;;;18.30;99.90;;;;;;5046675;28;20056;-78
2022/06/06 11:56:36;;;;;;;6.32;1.75;;;18.20;99.90;;;;;;5046238;28;20128;-78
2022/06/06 11:59:14;;;;;;;3.47;1.23;;;18.20;99.90;;;;;;5064260;28;20052;-81
2022/06/06 12:02:19;;;;;;;5.40;1.52;;;18.30;99.90;;;;;;5055174;28;20041;-81
2022/06/06 12:05:03;;;;;;;;;;;18.50;99.90;;;;;;5051412;28;20045;-82
2022/06/06 12:08:06;;;;;;;4.60;1.08;;;18.80;99.90;;;;;;5051212;28;19920;-81
2022/06/06 12:10:47;;;;;;;3.80;1.02;;;19.00;99.90;;;;;;5052051;28;20381;-80
2022/06/06 12:13:30;;;;;;;4.55;1.30;;;19.10;99.90;;;;;;5063359;28;20052;-81
2022/06/06 12:16:30;;;;;;;5.03;1.42;;;19.10;99.90;;;;;;5047717;28;20041;-81
2022/06/06 12:19:28;;;;;;;3.45;0.98;;;19.20;99.90;;;;;;5050085;28;20092;-81
2022/06/06 12:22:24;;;;;;;4.95;1.65;;;19.20;99.90;;;;;;5060173;28;20118;-80
2022/06/06 12:25:13;;;;;;;3.40;0.98;;;19.10;99.90;;;;;;5049191;28;20053;-80
2022/06/06 12:28:13;;;;;;;4.63;1.00;;;19.10;99.90;;;;;;5067806;28;20037;-81
2022/06/06 12:30:53;;;;;;;4.07;0.82;;;19.10;99.90;;;;;;5047034;28;20699;-81
2022/06/06 12:33:26;;;;;;;2.97;0.80;;;19.10;99.90;;;;;;5050586;28;20048;-81
2022/06/06 12:36:15;;;;;;;3.13;0.60;;;19.30;99.90;;;;;;5057430;28;20049;-81
2022/06/06 12:38:48;;;;;;;3.55;0.80;;;19.40;99.90;;;;;;5051811;28;20094;-80
2022/06/06 12:41:17;;;;;;;4.63;0.80;;;19.50;99.90;;;;;;5050009;28;20483;-82
2022/06/06 12:43:58;;;;;;;4.30;0.90;;;19.50;99.90;;;;;;5067573;28;20059;-82
2022/06/06 12:46:59;;;;;;;6.20;0.80;;;19.50;99.90;;;;;;5045033;28;20052;-82
2022/06/06 12:49:30;;;;;;;2.35;0.68;;;19.50;99.90;;;;;;5054432;28;20480;-80
2022/06/06 12:52:12;;;;;;;1.83;0.70;;;19.50;99.90;;;;;;5065536;28;20041;-82
2022/06/06 12:58:07;;;;;;;2.70;0.70;;;19.30;99.90;;;;;;5046595;28;20053;-81
2022/06/06 13:03:45;;;;;;;3.15;0.63;;;19.10;99.90;;;;;;5040928;28;20484;-82
2022/06/06 13:06:38;;;;;;;3.40;0.80;;;19.00;99.90;;;;;;5043282;28;20048;-82
2022/06/06 13:09:22;;;;;;;4.28;1.10;;;18.90;99.90;;;;;;5050527;28;21392;-81
2022/06/06 13:12:20;;;;;;;3.92;1.00;;;18.70;99.90;;;;;;5044922;28;20377;-82
2022/06/06 13:15:18;;;;;;;4.88;1.63;;;18.60;99.90;;;;;;5016990;28;20089;-82
2022/06/06 13:17:59;;;;;;;6.82;1.58;;;18.30;99.90;;;;;;5047036;28;20048;-83
2022/06/06 13:20:51;;;;;;;3.42;1.63;;;18.20;99.90;;;;;;5044165;28;20053;-84
2022/06/06 13:23:52;;;;;;;5.03;1.60;;;18.20;99.90;;;;;;5022154;28;20041;-85
2022/06/06 13:26:34;;;;;;;3.20;1.40;;;18.10;99.90;;;;;;5040533;28;20523;-83
2022/06/06 13:29:00;;;;;;;4.32;1.60;;;17.90;99.90;;;;;;5052783;28;20049;-82
2022/06/06 13:31:53;;;;;;;4.25;1.95;;;17.90;99.90;;;;;;5054125;28;20056;-83
2022/06/06 13:34:42;;;;;;;3.15;1.30;;;17.80;99.90;;;;;;5049051;28;20056;-84
2022/06/06 13:37:41;;;;;;;5.90;1.23;;;17.70;99.90;;;;;;5044096;28;20174;-84
2022/06/06 13:40:22;;;;;;;4.32;1.40;;;17.60;99.90;;;;;;5052019;28;20112;-84
2022/06/06 13:43:01;;;;;;;3.72;1.20;;;17.50;99.90;;;;;;5044601;28;20164;-83
2022/06/06 13:45:49;;;;;;;3.13;1.27;;;17.40;99.90;;;;;;5048797;28;20094;-82
2022/06/06 13:48:44;;;;;;;7.30;1.10;;;17.30;99.90;;;;;;5044712;28;20775;-82
2022/06/06 13:51:19;;;;;;;3.40;1.05;;;17.30;99.90;;;;;;5044012;28;20045;-82
2022/06/06 13:53:47;;;;;;;1.75;1.00;;;17.20;99.90;;;;;;5054234;28;20044;-82
2022/06/06 13:56:13;;;;;;;6.63;1.90;;;17.10;99.90;;;;;;5041963;28;20090;-82
2022/06/06 13:58:57;;;;;;;3.47;1.45;;;16.90;99.90;;;;;;5060945;28;20430;-85
2022/06/06 14:01:42;;;;;;;5.60;1.53;;;16.80;99.90;;;;;;5039506;28;20045;-85
2022/06/06 14:04:47;;;;;;;4.22;1.75;;;16.80;99.90;;;;;;5052152;28;20099;-85
2022/06/06 14:07:44;;;;;;;4.97;1.90;;;16.50;99.90;;;;;;5052823;28;20091;-85
2022/06/06 14:10:14;;;;;;;3.38;1.90;;;16.40;99.90;;;;;;5047635;28;20312;-85
2022/06/06 14:12:58;;;;;;;4.43;2.38;;;16.20;99.90;;;;;;5053015;28;20041;-84
2022/06/06 14:15:25;;;;;;;7.18;2.45;;;16.10;99.90;;;;;;5061309;28;20091;-84
2022/06/06 14:17:58;;;;;;;4.30;2.17;;;16.30;99.90;;;;;;5051524;28;20087;-85
2022/06/06 14:20:37;;;;;;;5.45;2.60;;;15.90;99.90;;;;;;5054135;28;20057;-84
2022/06/06 14:23:22;;;;;;;5.80;3.08;;;15.90;99.90;;;;;;5043269;28;20112;-83
2022/06/06 14:25:55;;;;;;;6.45;3.00;;;15.70;99.90;;;;;;5051806;28;20131;-84
2022/06/06 14:28:28;;;;;;;6.47;2.70;;;15.70;99.90;;;;;;5046245;28;20056;-83